Time;durP1;ratioP1;P1;durP2;ratioP2;P2;SDS_P1;SDS_P2;PMS_P1;PMS_P2;Temp;Humidity;BMP_temperature;BMP_pressure;BME280_temperature;BME280_humidity;BME280_pressure;Samples;Min_cycle;Max_cycle;Signal;HPM_P1;HPM_P2
2022/02/23 00:00:19;;;;;;;1.02;0.70;;;;;;;4.61;100.00;98459.16;4962991;28;20443;-55
2022/02/23 00:03:10;;;;;;;2.42;1.10;;;;;;;4.73;100.00;98459.81;4921080;28;20114;-53
2022/02/23 00:05:55;;;;;;;1.55;0.57;;;;;;;4.63;100.00;98446.88;4965260;28;20184;-61
2022/02/23 00:08:39;;;;;;;3.60;0.75;;;;;;;4.56;100.00;98458.38;4954370;28;20054;-54
2022/02/23 00:11:23;;;;;;;1.92;0.82;;;;;;;4.73;100.00;98465.06;4960578;28;20181;-52
2022/02/23 00:14:08;;;;;;;2.15;0.57;;;;;;;4.81;100.00;98465.78;4953500;28;20154;-58
2022/02/23 00:16:52;;;;;;;2.33;0.70;;;;;;;4.84;100.00;98462.25;4966050;28;20065;-62
2022/02/23 00:19:37;;;;;;;0.90;0.60;;;;;;;4.67;100.00;98462.53;4967580;28;20459;-56
2022/02/23 00:22:22;;;;;;;2.03;0.60;;;;;;;4.74;100.00;98471.16;4951000;28;20565;-57
2022/02/23 00:25:08;;;;;;;1.25;0.70;;;;;;;4.82;100.00;98479.75;4939788;28;20057;-58
2022/02/23 00:27:52;;;;;;;1.58;0.70;;;;;;;4.99;100.00;98483.81;4953341;28;20923;-57
2022/02/23 00:30:37;;;;;;;1.63;1.00;;;;;;;5.15;100.00;98467.78;4951099;28;20482;-58
2022/02/23 00:33:22;;;;;;;0.95;0.60;;;;;;;5.07;100.00;98473.19;4943394;29;20054;-61
2022/02/23 00:36:06;;;;;;;1.67;0.77;;;;;;;4.97;100.00;98476.88;4921881;29;20102;-65
2022/02/23 00:38:51;;;;;;;1.55;0.70;;;;;;;4.72;100.00;98436.22;4962812;28;20300;-54
2022/02/23 00:41:35;;;;;;;1.70;0.70;;;;;;;4.58;100.00;98435.56;4964965;28;20097;-58
2022/02/23 00:44:19;;;;;;;2.17;0.70;;;;;;;4.75;100.00;98479.00;4967411;28;20058;-57
2022/02/23 00:47:05;;;;;;;1.02;0.60;;;;;;;4.75;100.00;98478.16;4966457;28;20048;-58
2022/02/23 00:49:50;;;;;;;1.77;0.80;;;;;;;4.47;100.00;98476.88;4957246;28;20045;-57
2022/02/23 00:52:35;;;;;;;1.40;0.60;;;;;;;4.61;100.00;98482.78;4930280;29;20134;-56
2022/02/23 00:55:19;;;;;;;1.80;0.80;;;;;;;4.78;100.00;98488.59;4948807;28;20105;-64
2022/02/23 00:58:04;;;;;;;2.17;0.77;;;;;;;4.76;100.00;98490.41;4961636;28;20054;-57
2022/02/23 01:00:48;;;;;;;1.58;0.70;;;;;;;4.61;100.00;98474.91;4965902;28;20432;-58
2022/02/23 01:03:33;;;;;;;2.15;0.73;;;;;;;4.59;100.00;98500.31;4952318;28;20065;-55
2022/02/23 01:06:18;;;;;;;1.55;0.70;;;;;;;4.51;100.00;98489.09;4965772;28;20557;-59
2022/02/23 01:09:04;;;;;;;0.80;0.50;;;;;;;4.57;100.00;98496.84;4933883;29;20053;-53
2022/02/23 01:11:48;;;;;;;0.98;0.60;;;;;;;4.40;100.00;98502.34;4958744;28;20053;-58
2022/02/23 01:14:33;;;;;;;0.85;0.57;;;;;;;4.29;100.00;98506.03;4923015;28;20125;-64
2022/02/23 01:17:19;;;;;;;0.80;0.50;;;;;;;4.30;100.00;98508.66;4927385;28;20086;-58
2022/02/23 01:20:05;;;;;;;1.67;0.47;;;;;;;4.51;100.00;98516.19;4959051;28;20559;-59
2022/02/23 01:22:52;;;;;;;1.17;0.65;;;;;;;4.53;100.00;98516.16;4933587;29;20585;-57
2022/02/23 01:25:36;;;;;;;1.23;0.60;;;;;;;4.59;100.00;98518.69;4930021;28;20626;-58
2022/02/23 01:28:21;;;;;;;0.77;0.60;;;;;;;4.52;100.00;98519.69;4962747;28;20054;-59
2022/02/23 01:31:06;;;;;;;1.40;0.70;;;;;;;4.38;100.00;98514.66;4958928;28;20050;-58
2022/02/23 01:33:51;;;;;;;0.73;0.50;;;;;;;4.47;100.00;98482.13;4959640;28;20110;-63
2022/02/23 01:36:36;;;;;;;;;;;;;;;4.62;100.00;98531.75;4923826;29;20086;-57
2022/02/23 01:39:20;;;;;;;0.57;0.45;;;;;;;4.46;100.00;98501.38;4946162;29;20012;-57
2022/02/23 01:42:05;;;;;;;0.63;0.50;;;;;;;4.55;100.00;98535.38;4960069;28;20635;-59
2022/02/23 01:44:50;;;;;;;1.23;0.45;;;;;;;4.61;100.00;98540.53;4951122;28;20829;-56
2022/02/23 01:47:34;;;;;;;1.42;0.60;;;;;;;4.45;100.00;98537.28;4952133;28;20057;-56
2022/02/23 01:50:20;;;;;;;0.77;0.60;;;;;;;4.21;100.00;98521.03;4952184;28;20054;-56
2022/02/23 01:53:05;;;;;;;0.85;0.68;;;;;;;4.56;100.00;98540.59;4952164;28;20094;-60
2022/02/23 01:55:50;;;;;;;1.20;0.70;;;;;;;4.49;100.00;98540.72;4923773;28;20049;-56
2022/02/23 01:58:35;;;;;;;1.85;0.70;;;;;;;4.54;100.00;98539.75;4966035;28;20131;-58
2022/02/23 02:01:19;;;;;;;1.08;0.45;;;;;;;4.66;100.00;98551.81;4954998;28;20530;-61
2022/02/23 02:04:04;;;;;;;1.08;0.50;;;;;;;4.75;100.00;98542.03;4946770;29;20054;-54
2022/02/23 02:06:50;;;;;;;0.65;0.55;;;;;;;4.46;100.00;98533.75;4951618;28;20109;-58
2022/02/23 02:09:35;;;;;;;1.00;0.60;;;;;;;4.50;100.00;98556.44;4957876;28;20064;-56
2022/02/23 02:12:20;;;;;;;1.40;0.70;;;;;;;4.38;100.00;98559.25;4945028;28;20047;-63
2022/02/23 02:15:06;;;;;;;1.95;0.60;;;;;;;4.38;100.00;98542.63;4932798;28;20114;-58
2022/02/23 02:17:51;;;;;;;1.15;0.70;;;;;;;4.51;100.00;98554.69;4915384;29;20050;-56
2022/02/23 02:20:35;;;;;;;0.50;0.50;;;;;;;4.44;100.00;98545.19;4955160;28;20138;-57
2022/02/23 02:23:20;;;;;;;0.68;0.50;;;;;;;4.40;100.00;98567.09;4964756;28;20772;-55
2022/02/23 02:26:04;;;;;;;1.02;0.50;;;;;;;4.39;100.00;98523.38;4964275;28;20425;-56
2022/02/23 02:28:48;;;;;;;1.00;0.67;;;;;;;4.48;100.00;98568.69;4940631;28;20101;-55
2022/02/23 02:31:33;;;;;;;0.77;0.60;;;;;;;4.45;100.00;98573.16;4931916;29;20378;-62
2022/02/23 02:34:19;;;;;;;1.33;0.50;;;;;;;4.48;100.00;98565.22;4950951;28;20171;-56
2022/02/23 02:37:06;;;;;;;1.00;0.65;;;;;;;4.63;100.00;98586.00;4946169;28;20179;-56
2022/02/23 02:39:50;;;;;;;2.03;0.55;;;;;;;4.50;100.00;98571.31;4951240;28;20105;-57
2022/02/23 02:42:35;;;;;;;0.98;0.75;;;;;;;4.62;100.00;98586.88;4959856;28;20467;-56
2022/02/23 02:45:21;;;;;;;0.80;0.43;;;;;;;4.69;100.00;98584.16;4953396;28;20134;-56
2022/02/23 02:48:06;;;;;;;0.65;0.52;;;;;;;4.88;100.00;98595.22;4928818;28;20085;-57
2022/02/23 02:50:50;;;;;;;1.17;0.65;;;;;;;4.47;100.00;98555.59;4965662;28;20053;-63
2022/02/23 02:53:35;;;;;;;0.82;0.70;;;;;;;4.76;100.00;98590.16;4954541;28;20056;-55
2022/02/23 02:56:20;;;;;;;0.57;0.50;;;;;;;4.53;100.00;98594.88;4951618;28;20157;-57
2022/02/23 02:59:05;;;;;;;0.60;0.45;;;;;;;4.63;100.00;98591.25;4925697;28;20058;-55
2022/02/23 03:01:50;;;;;;;0.95;0.57;;;;;;;4.44;100.00;98592.41;4969246;28;20057;-55
2022/02/23 03:04:35;;;;;;;0.80;0.60;;;;;;;4.39;100.00;98592.47;4941050;28;20069;-61
2022/02/23 03:07:19;;;;;;;1.08;0.52;;;;;;;4.48;100.00;98601.97;4964017;28;20056;-57
2022/02/23 03:10:04;;;;;;;1.30;0.63;;;;;;;4.48;100.00;98610.69;4970578;28;20057;-63
2022/02/23 03:12:49;;;;;;;0.80;0.52;;;;;;;4.54;100.00;98604.50;4948053;29;20066;-58
2022/02/23 03:15:34;;;;;;;0.98;0.60;;;;;;;4.34;100.00;98604.78;4956485;28;20114;-57
2022/02/23 03:18:18;;;;;;;1.03;0.60;;;;;;;4.44;100.00;98598.50;4960116;28;20053;-56
2022/02/23 03:21:04;;;;;;;1.27;0.70;;;;;;;4.36;100.00;98604.78;4966956;28;20061;-60
2022/02/23 03:23:48;;;;;;;1.33;0.60;;;;;;;4.39;100.00;98599.47;4951494;28;20053;-59
2022/02/23 03:26:33;;;;;;;0.63;0.60;;;;;;;4.40;100.00;98609.94;4946174;28;20061;-56
2022/02/23 03:29:18;;;;;;;0.80;0.60;;;;;;;4.26;100.00;98606.66;4951211;28;20054;-65
2022/02/23 03:32:04;;;;;;;0.88;0.60;;;;;;;4.34;100.00;98624.91;4965498;28;20049;-56
2022/02/23 03:34:48;;;;;;;0.60;0.60;;;;;;;4.32;100.00;98618.81;4965121;28;20098;-58
2022/02/23 03:37:33;;;;;;;2.00;0.68;;;;;;;4.34;100.00;98628.41;4948381;28;20062;-55
2022/02/23 03:40:17;;;;;;;1.25;0.88;;;;;;;4.32;100.00;98627.53;4958987;28;20803;-58
2022/02/23 03:43:04;;;;;;;0.85;0.60;;;;;;;4.40;100.00;98630.09;4963473;28;20084;-57
2022/02/23 03:45:49;;;;;;;2.50;0.70;;;;;;;4.41;100.00;98631.81;4942032;28;20053;-56
2022/02/23 03:48:33;;;;;;;0.88;0.70;;;;;;;4.25;100.00;98614.53;4948308;28;20094;-62
2022/02/23 03:51:18;;;;;;;2.38;0.70;;;;;;;4.57;100.00;98639.44;4948754;28;20089;-55
2022/02/23 03:54:02;;;;;;;0.60;0.60;;;;;;;4.37;100.00;98638.00;4933686;29;20089;-55
2022/02/23 03:56:47;;;;;;;0.50;0.50;;;;;;;4.43;100.00;98638.75;4933465;28;20551;-54
2022/02/23 03:59:31;;;;;;;1.55;0.70;;;;;;;4.16;100.00;98631.25;4949038;28;20712;-56
2022/02/23 04:02:16;;;;;;;0.85;0.70;;;;;;;4.17;100.00;98633.00;4919261;29;20054;-54
2022/02/23 04:05:00;;;;;;;1.00;0.80;;;;;;;4.01;100.00;98600.00;4949123;28;20093;-61
2022/02/23 04:07:47;;;;;;;1.10;0.70;;;;;;;3.91;100.00;98569.53;4941207;28;20066;-63
2022/02/23 04:10:33;;;;;;;0.75;0.73;;;;;;;4.43;100.00;98646.63;4967509;28;20546;-60
2022/02/23 04:13:17;;;;;;;1.27;0.77;;;;;;;4.13;100.00;98628.69;4968313;28;20053;-57
2022/02/23 04:16:01;;;;;;;1.58;0.90;;;;;;;4.17;100.00;98648.75;4945531;28;20625;-56
2022/02/23 04:18:46;;;;;;;1.58;0.65;;;;;;;4.26;100.00;98611.91;4971562;28;20657;-57
2022/02/23 04:21:30;;;;;;;2.08;1.10;;;;;;;4.43;100.00;98648.38;4978868;28;20058;-59
2022/02/23 04:24:15;;;;;;;1.05;0.70;;;;;;;4.35;100.00;98645.00;4955971;28;20061;-55
2022/02/23 04:27:01;;;;;;;1.27;0.95;;;;;;;4.59;100.00;98647.31;4983947;28;20139;-63
2022/02/23 04:29:46;;;;;;;2.30;1.10;;;;;;;4.62;100.00;98658.63;4940268;28;20082;-61
2022/02/23 04:32:31;;;;;;;2.25;1.02;;;;;;;4.46;100.00;98643.97;4966065;28;20085;-60
2022/02/23 04:35:16;;;;;;;1.63;1.05;;;;;;;4.30;100.00;98646.81;4967992;28;20050;-59
2022/02/23 04:38:01;;;;;;;1.80;0.90;;;;;;;4.33;100.00;98657.28;4941457;28;20081;-55
2022/02/23 04:40:46;;;;;;;2.28;1.05;;;;;;;4.27;100.00;98642.47;4986429;28;20133;-62
2022/02/23 04:43:33;;;;;;;1.70;1.13;;;;;;;4.23;100.00;98661.78;5002885;28;20463;-55
2022/02/23 04:46:17;;;;;;;1.90;1.08;;;;;;;4.09;100.00;98649.72;4938237;28;20514;-62
2022/02/23 04:49:03;;;;;;;1.10;0.80;;;;;;;4.10;100.00;98656.69;4964678;28;20060;-56
2022/02/23 04:51:48;;;;;;;2.45;1.38;;;;;;;4.10;100.00;98660.19;4972564;28;20061;-59
2022/02/23 04:54:34;;;;;;;1.70;1.05;;;;;;;4.19;100.00;98665.31;4943401;28;20423;-58
2022/02/23 04:57:20;;;;;;;1.80;0.90;;;;;;;4.19;100.00;98673.19;4976313;28;20114;-65
2022/02/23 05:00:06;;;;;;;1.80;1.02;;;;;;;4.16;100.00;98681.09;4982805;28;20138;-57
2022/02/23 05:02:51;;;;;;;4.80;1.40;;;;;;;4.28;100.00;98672.22;4973138;28;20076;-56
2022/02/23 05:05:37;;;;;;;1.98;0.93;;;;;;;4.28;100.00;98680.09;4950941;28;20046;-61
2022/02/23 05:08:21;;;;;;;1.25;0.85;;;;;;;4.18;100.00;98681.97;4958310;28;20133;-59
2022/02/23 05:11:06;;;;;;;1.60;1.08;;;;;;;4.33;100.00;98688.75;4959065;28;20060;-55
2022/02/23 05:13:52;;;;;;;1.52;1.00;;;;;;;4.37;100.00;98690.47;4997897;28;20565;-61
2022/02/23 05:16:36;;;;;;;2.72;1.10;;;;;;;4.07;100.00;98690.81;4957259;28;20170;-60
2022/02/23 05:19:21;;;;;;;1.83;1.00;;;;;;;4.01;100.00;98702.28;4987219;28;20056;-61
2022/02/23 05:22:05;;;;;;;2.22;1.10;;;;;;;4.04;100.00;98702.22;4976828;28;20116;-58
2022/02/23 05:24:50;;;;;;;1.30;1.05;;;;;;;3.84;100.00;98685.84;4981272;28;20124;-62
2022/02/23 05:27:35;;;;;;;2.70;1.40;;;;;;;4.15;100.00;98708.22;4975934;28;20049;-59
2022/02/23 05:30:20;;;;;;;2.78;1.15;;;;;;;4.14;100.00;98713.47;4993698;28;20061;-61
2022/02/23 05:33:04;;;;;;;4.72;2.38;;;;;;;3.90;100.00;98679.66;4928794;28;20061;-61
2022/02/23 05:35:49;;;;;;;3.20;1.70;;;;;;;4.05;100.00;98710.97;4976023;28;20053;-62
2022/02/23 05:38:33;;;;;;;2.22;1.40;;;;;;;4.16;100.00;98728.31;4986007;28;20096;-59
2022/02/23 05:41:18;;;;;;;2.65;1.35;;;;;;;4.38;100.00;98734.19;4973959;28;20104;-62
2022/02/23 05:44:04;;;;;;;1.67;1.35;;;;;;;4.35;100.00;98734.19;4965041;28;20080;-63
2022/02/23 05:46:49;;;;;;;2.53;1.45;;;;;;;4.19;100.00;98735.25;4941713;28;20733;-59
2022/02/23 05:49:33;;;;;;;3.90;1.30;;;;;;;4.13;100.00;98737.97;4967830;28;20065;-59
2022/02/23 05:52:20;;;;;;;1.73;1.17;;;;;;;4.21;100.00;98742.25;4952878;28;20058;-62
2022/02/23 05:55:05;;;;;;;4.20;1.40;;;;;;;4.31;100.00;98736.00;4948362;28;20062;-59
2022/02/23 05:57:50;;;;;;;;;;;;;;;4.43;100.00;98743.72;4946072;28;20049;-59
2022/02/23 06:00:34;;;;;;;3.63;1.20;;;;;;;4.23;100.00;98743.09;4967388;28;19972;-59
2022/02/23 06:03:18;;;;;;;2.00;1.10;;;;;;;4.21;100.00;98738.75;4976285;28;20069;-62
2022/02/23 06:06:03;;;;;;;2.60;1.30;;;;;;;4.11;100.00;98743.22;4984705;28;20116;-57
2022/02/23 06:08:48;;;;;;;2.15;1.50;;;;;;;4.20;100.00;98743.13;4950377;28;20447;-59
2022/02/23 06:11:33;;;;;;;2.03;1.67;;;;;;;4.31;100.00;98756.13;4969231;28;20621;-58
2022/02/23 06:14:17;;;;;;;3.15;1.65;;;;;;;4.43;100.00;98763.84;4997145;28;20703;-61
2022/02/23 06:17:02;;;;;;;3.30;1.20;;;;;;;4.40;100.00;98759.50;4991381;28;20054;-60
2022/02/23 06:19:47;;;;;;;1.35;1.20;;;;;;;4.19;100.00;98728.28;4960679;28;20101;-60
2022/02/23 06:22:32;;;;;;;;;;;;;;;4.67;100.00;98776.69;4986104;28;20426;-65
2022/02/23 06:25:16;;;;;;;2.03;1.20;;;;;;;4.76;100.00;98773.94;4987934;28;20404;-61
2022/02/23 06:28:03;;;;;;;1.40;1.00;;;;;;;4.85;100.00;98787.81;4996539;28;20145;-62
2022/02/23 06:30:49;;;;;;;3.63;1.40;;;;;;;4.40;100.00;98711.44;4991203;28;20053;-60
2022/02/23 06:33:34;;;;;;;2.95;1.52;;;;;;;4.59;100.00;98784.66;4974645;28;20049;-60
2022/02/23 06:36:19;;;;;;;2.95;1.70;;;;;;;4.52;100.00;98792.63;4960664;28;20054;-65
2022/02/23 06:39:04;;;;;;;2.85;1.85;;;;;;;4.58;100.00;98784.66;4990430;28;20058;-61
2022/02/23 06:41:48;;;;;;;3.83;1.80;;;;;;;4.56;100.00;98766.31;4985044;28;20532;-65
2022/02/23 06:44:34;;;;;;;2.60;1.70;;;;;;;4.52;100.00;98795.25;4982388;28;20194;-66
2022/02/23 06:47:18;;;;;;;2.60;1.73;;;;;;;4.33;100.00;98801.59;4987220;28;20097;-63
2022/02/23 06:50:04;;;;;;;3.55;1.92;;;;;;;4.04;100.00;98773.03;4929927;28;20049;-58
2022/02/23 06:52:50;;;;;;;2.75;1.70;;;;;;;3.80;100.00;98705.09;4978831;28;20117;-59
2022/02/23 06:55:35;;;;;;;2.40;1.65;;;;;;;4.37;100.00;98817.28;4971007;28;20081;-60
2022/02/23 06:58:21;;;;;;;2.15;1.58;;;;;;;4.44;100.00;98813.69;4973345;28;20165;-58
2022/02/23 07:01:05;;;;;;;2.97;1.80;;;;;;;4.24;100.00;98825.31;4986927;28;20057;-61
2022/02/23 07:03:50;;;;;;;5.65;2.10;;;;;;;3.98;100.00;98787.97;4959728;28;20102;-59
2022/02/23 07:06:35;;;;;;;3.28;2.13;;;;;;;4.07;100.00;98817.59;4964841;28;20085;-59
2022/02/23 07:09:19;;;;;;;3.55;2.10;;;;;;;4.38;100.00;98831.25;4964441;28;20526;-59
2022/02/23 07:12:09;;;;;;;4.07;1.67;;;;;;;4.38;100.00;98836.50;4983799;28;20578;-60
2022/02/23 07:14:54;;;;;;;3.10;1.92;;;;;;;3.96;100.00;98800.22;4971996;28;20066;-65
2022/02/23 07:17:38;;;;;;;4.03;2.05;;;;;;;3.84;100.00;98795.94;4953038;28;20125;-62
2022/02/23 07:20:23;;;;;;;3.55;1.92;;;;;;;3.93;100.00;98831.72;4947000;28;20113;-61
2022/02/23 07:23:08;;;;;;;4.30;2.28;;;;;;;4.03;100.00;98842.09;4953922;28;20058;-58
2022/02/23 07:25:53;;;;;;;4.25;2.40;;;;;;;4.00;100.00;98838.66;4954536;28;20192;-58
2022/02/23 07:28:38;;;;;;;3.50;2.20;;;;;;;4.09;100.00;98842.06;4936112;28;20053;-56
2022/02/23 07:31:23;;;;;;;4.22;2.05;;;;;;;4.10;100.00;98856.91;4957812;28;20065;-58
2022/02/23 07:34:13;;;;;;;3.63;1.90;;;;;;;4.13;100.00;98835.03;4934346;29;20098;-64
2022/02/23 07:36:57;;;;;;;3.80;1.90;;;;;;;3.84;100.00;98788.09;4953056;28;20054;-65
2022/02/23 07:39:43;;;;;;;6.60;2.90;;;;;;;3.95;100.00;98814.19;4967054;28;20050;-59
2022/02/23 07:42:28;;;;;;;5.32;2.80;;;;;;;3.90;100.00;98823.88;4942035;28;20138;-64
2022/02/23 07:45:13;;;;;;;6.18;2.60;;;;;;;4.24;100.00;98862.88;4970369;28;20070;-57
2022/02/23 07:47:59;;;;;;;4.25;2.78;;;;;;;4.11;100.00;98869.13;4955119;28;20058;-60
2022/02/23 07:50:44;;;;;;;6.72;2.78;;;;;;;4.24;100.00;98865.50;4909434;29;20118;-61
2022/02/23 07:53:28;;;;;;;8.15;3.50;;;;;;;4.31;100.00;98866.31;4966187;28;20053;-59
2022/02/23 07:56:13;;;;;;;5.85;3.05;;;;;;;4.31;100.00;98869.81;4973516;28;20076;-57
2022/02/23 07:58:57;;;;;;;3.90;2.47;;;;;;;4.35;100.00;98873.28;4967046;28;20094;-62
2022/02/23 08:01:42;;;;;;;5.43;3.00;;;;;;;4.70;100.00;98874.66;4927959;28;20054;-63
2022/02/23 08:04:28;;;;;;;6.13;2.90;;;;;;;4.67;100.00;98892.22;4941365;28;20159;-59
2022/02/23 08:07:13;;;;;;;5.47;2.65;;;;;;;4.64;100.00;98879.97;4954885;28;20053;-56
2022/02/23 08:09:58;;;;;;;5.50;2.55;;;;;;;4.82;100.00;98877.16;4934624;28;20566;-59
2022/02/23 08:12:42;;;;;;;3.78;2.22;;;;;;;4.77;100.00;98899.09;4938832;28;20110;-64
2022/02/23 08:21:34;;;;;;;3.53;1.90;;;;;;;4.62;100.00;98891.38;4987401;28;20904;-59
2022/02/23 08:24:18;;;;;;;3.47;1.88;;;;;;;4.42;100.00;98901.19;4996161;28;20521;-61
2022/02/23 08:27:04;;;;;;;3.67;2.05;;;;;;;4.34;100.00;98903.03;4982930;28;20053;-59
2022/02/23 08:29:49;;;;;;;3.88;2.10;;;;;;;4.39;100.00;98899.47;4955986;28;20048;-63
2022/02/23 08:32:34;;;;;;;4.07;2.00;;;;;;;4.44;100.00;98905.53;4994903;28;20049;-56
2022/02/23 08:35:19;;;;;;;3.33;2.20;;;;;;;4.50;100.00;98925.63;4995044;28;20104;-61
2022/02/23 08:38:11;;;;;;;3.33;1.90;;;;;;;4.55;100.00;98923.84;4982524;28;20093;-61
2022/02/23 08:40:55;;;;;;;4.45;1.73;;;;;;;4.53;100.00;98922.97;4967105;28;20049;-61
2022/02/23 08:43:40;;;;;;;1.30;0.85;;;;;;;4.46;100.00;98927.41;4975577;28;20217;-64
2022/02/23 08:46:24;;;;;;;2.10;1.10;;;;;;;4.48;100.00;98924.78;4991722;28;20049;-64
2022/02/23 08:49:10;;;;;;;1.90;0.90;;;;;;;4.48;100.00;98933.50;4990809;28;20104;-59
2022/02/23 08:51:55;;;;;;;2.25;1.08;;;;;;;4.47;100.00;98939.63;4945604;28;20057;-64
2022/02/23 08:54:39;;;;;;;1.70;1.00;;;;;;;4.51;100.00;98920.34;4969503;28;20058;-59
2022/02/23 08:57:25;;;;;;;2.08;1.10;;;;;;;4.73;100.00;98935.03;4995484;28;20048;-64
2022/02/23 09:00:11;;;;;;;1.55;1.00;;;;;;;4.62;100.00;98943.88;4989907;28;20061;-59
2022/02/23 09:02:56;;;;;;;1.95;0.88;;;;;;;4.76;100.00;98944.63;4991051;28;20402;-63
2022/02/23 09:05:41;;;;;;;2.20;1.05;;;;;;;4.73;100.00;98936.75;4973221;28;20100;-59
2022/02/23 09:08:25;;;;;;;1.55;0.85;;;;;;;4.58;100.00;98939.53;4969289;28;20054;-62
2022/02/23 09:11:12;;;;;;;1.80;1.17;;;;;;;4.74;100.00;98957.75;4968713;28;20410;-60
2022/02/23 09:13:58;;;;;;;1.80;0.80;;;;;;;4.89;100.00;98959.34;4977019;28;20049;-59
2022/02/23 09:16:44;;;;;;;1.95;0.93;;;;;;;4.88;100.00;98960.25;4967503;28;20069;-60
2022/02/23 09:19:28;;;;;;;1.55;0.73;;;;;;;4.85;100.00;98976.91;4942654;28;20066;-56
2022/02/23 09:22:13;;;;;;;2.03;1.02;;;;;;;4.77;100.00;98954.22;4955832;28;20246;-63
2022/02/23 09:24:57;;;;;;;1.45;0.85;;;;;;;4.80;100.00;98970.81;4970894;28;20477;-63
2022/02/23 09:27:42;;;;;;;1.95;1.10;;;;;;;4.72;100.00;98970.00;4944618;28;20046;-62
2022/02/23 09:30:27;;;;;;;1.63;1.20;;;;;;;4.57;100.00;98941.31;4958724;28;20534;-62
2022/02/23 09:33:14;;;;;;;1.88;1.05;;;;;;;4.80;100.00;98977.84;4946078;28;20574;-62
2022/02/23 09:36:02;;;;;;;1.60;1.00;;;;;;;4.75;100.00;98977.88;4951210;28;20118;-62
2022/02/23 09:38:48;;;;;;;1.38;0.80;;;;;;;4.62;100.00;98947.38;4962168;28;20062;-62
2022/02/23 09:41:34;;;;;;;1.25;0.93;;;;;;;4.75;100.00;98996.25;4971767;28;20069;-62
2022/02/23 09:44:18;;;;;;;1.25;0.80;;;;;;;4.57;100.00;98956.19;4958490;28;20073;-62
2022/02/23 09:47:03;;;;;;;1.40;0.80;;;;;;;4.81;100.00;99001.47;4971373;28;20182;-58
2022/02/23 09:49:49;;;;;;;;;;;;;;;4.87;100.00;98990.03;4944164;28;20567;-63
2022/02/23 09:52:37;;;;;;;2.53;1.10;;;;;;;4.76;100.00;99011.09;4961076;28;20060;-62
2022/02/23 09:55:22;;;;;;;1.40;1.08;;;;;;;4.87;100.00;99013.66;4947352;28;20105;-62
2022/02/23 09:58:06;;;;;;;2.15;1.00;;;;;;;4.92;100.00;99011.84;4973163;28;20104;-60
2022/02/23 10:00:54;;;;;;;3.13;1.10;;;;;;;4.92;100.00;99017.97;4955645;28;20109;-58
2022/02/23 10:03:42;;;;;;;2.85;1.17;;;;;;;4.84;100.00;99017.16;4938446;28;20601;-62
2022/02/23 10:06:28;;;;;;;1.25;0.90;;;;;;;4.88;100.00;99026.75;4925095;29;20102;-60
2022/02/23 10:09:14;;;;;;;1.98;0.90;;;;;;;4.94;100.00;99042.47;4916218;28;21565;-66
2022/02/23 10:11:59;;;;;;;1.30;0.90;;;;;;;4.91;100.00;99031.97;4969005;28;20089;-60
2022/02/23 10:14:45;;;;;;;2.10;1.10;;;;;;;5.02;100.00;99047.63;4969048;28;20530;-62
2022/02/23 10:17:47;;;;;;;2.30;1.10;;;;;;;5.12;100.00;99049.31;4919984;28;20424;-62
2022/02/23 10:20:37;;;;;;;1.77;1.10;;;;;;;5.12;100.00;99054.56;4939029;28;20058;-63
2022/02/23 10:23:28;;;;;;;2.53;1.10;;;;;;;5.05;100.00;99063.38;4931532;28;20121;-61
2022/02/23 10:26:14;;;;;;;1.55;1.00;;;;;;;4.93;100.00;99046.00;4939256;28;20153;-61
2022/02/23 10:29:01;;;;;;;1.98;1.20;;;;;;;5.03;100.00;99056.41;4956479;28;20050;-62
2022/02/23 10:31:50;;;;;;;1.80;1.10;;;;;;;4.93;100.00;99060.88;4946338;28;20053;-59
2022/02/23 10:34:57;;;;;;;1.38;0.80;;;;;;;4.95;100.00;99067.84;4933958;28;20187;-60
2022/02/23 10:37:43;;;;;;;1.83;1.08;;;;;;;4.74;100.00;99080.28;4957637;28;20086;-62
2022/02/23 10:40:28;;;;;;;2.28;1.23;;;;;;;4.80;100.00;99088.97;4924152;28;20057;-63
2022/02/23 10:43:31;;;;;;;2.08;1.10;;;;;;;5.00;100.00;99094.94;4960125;28;20054;-60
2022/02/23 10:46:17;;;;;;;2.53;1.05;;;;;;;4.90;100.00;99060.88;4936651;28;20183;-59
2022/02/23 10:49:02;;;;;;;1.95;1.20;;;;;;;5.28;100.00;99105.19;4954240;28;20119;-59
2022/02/23 10:51:48;;;;;;;2.10;1.02;;;;;;;5.37;100.00;99098.09;4950805;28;20058;-59
2022/02/23 10:54:35;;;;;;;1.63;1.13;;;;;;;5.38;100.00;99091.09;4929272;28;20057;-59
2022/02/23 10:57:22;;;;;;;1.67;1.23;;;;;;;5.46;100.00;99111.13;4938320;28;20085;-63
2022/02/23 11:00:20;;;;;;;1.67;1.00;;;;;;;5.50;100.00;99117.25;4920845;28;20100;-57
2022/02/23 11:03:06;;;;;;;1.45;0.95;;;;;;;4.93;100.00;99059.13;4955963;28;20551;-59
2022/02/23 11:05:52;;;;;;;1.58;0.90;;;;;;;4.94;100.00;99121.28;4937647;28;20054;-76
2022/02/23 11:08:36;;;;;;;2.85;1.27;;;;;;;4.88;100.00;99113.44;4941091;28;20186;-59
2022/02/23 11:11:23;;;;;;;3.30;1.38;;;;;;;4.85;100.00;99118.72;4956549;28;20467;-58
2022/02/23 11:14:09;;;;;;;2.58;1.02;;;;;;;4.77;100.00;99119.66;4948079;28;20054;-60
2022/02/23 11:16:59;;;;;;;1.77;1.17;;;;;;;4.72;100.00;99131.94;4961465;28;20117;-61
2022/02/23 11:19:45;;;;;;;2.17;1.45;;;;;;;4.61;100.00;99110.16;4946485;28;20113;-65
2022/02/23 11:22:31;;;;;;;2.78;1.33;;;;;;;4.76;100.00;99147.66;4967399;28;20538;-60
2022/02/23 11:25:18;;;;;;;1.55;0.70;;;;;;;4.96;100.00;99150.16;4946749;28;20549;-62
2022/02/23 11:28:26;;;;;;;1.20;1.00;;;;;;;5.22;100.00;99152.56;4953151;28;20098;-59
2022/02/23 11:31:13;;;;;;;1.10;0.80;;;;;;;5.29;100.00;99162.16;4932571;28;20418;-60
2022/02/23 11:34:03;;;;;;;2.53;0.80;;;;;;;5.12;100.00;99132.50;4938875;28;20062;-61
2022/02/23 11:36:52;;;;;;;3.03;0.82;;;;;;;5.20;100.00;99178.84;4919084;28;20061;-65
2022/02/23 11:39:38;;;;;;;3.75;1.05;;;;;;;5.13;100.00;99164.03;4941041;28;20078;-59
2022/02/23 11:42:24;;;;;;;2.00;0.82;;;;;;;5.06;100.00;99172.81;4957048;28;20117;-59
2022/02/23 11:45:15;;;;;;;1.58;0.90;;;;;;;4.67;100.00;99154.75;4943641;28;20050;-62
2022/02/23 11:48:00;;;;;;;2.45;0.80;;;;;;;4.69;100.00;99180.13;4961959;28;20391;-59
2022/02/23 11:51:02;;;;;;;1.10;0.80;;;;;;;4.62;100.00;99198.53;4964327;28;20065;-64
2022/02/23 11:53:46;;;;;;;1.20;0.70;;;;;;;4.47;100.00;99193.34;4941704;28;20058;-59
2022/02/23 11:56:45;;;;;;;0.98;0.65;;;;;;;4.46;100.00;99194.22;4945348;28;20053;-58
2022/02/23 11:59:46;;;;;;;1.05;0.60;;;;;;;4.24;100.00;99163.75;4956186;28;20057;-61
2022/02/23 12:02:31;;;;;;;1.25;0.70;;;;;;;4.40;100.00;99208.25;4937131;28;20141;-64
2022/02/23 12:05:34;;;;;;;;;;;;;;;4.43;100.00;99228.34;4961887;28;20109;-60
2022/02/23 12:08:32;;;;;;;3.03;1.13;;;;;;;4.50;100.00;99233.59;4959625;28;19926;-60
2022/02/23 12:11:17;;;;;;;3.67;1.30;;;;;;;4.51;100.00;99229.22;4951469;28;20122;-61
2022/02/23 12:14:01;;;;;;;4.80;1.88;;;;;;;4.52;100.00;99228.34;4944660;28;20142;-62
2022/02/23 12:16:49;;;;;;;2.75;1.10;;;;;;;4.59;100.00;99248.44;4956812;28;20567;-60
2022/02/23 12:19:41;;;;;;;3.63;1.27;;;;;;;4.45;100.00;99240.63;4955629;28;20167;-63
2022/02/23 12:22:29;;;;;;;1.90;1.05;;;;;;;4.23;100.00;99259.94;4961782;28;20074;-63
2022/02/23 12:25:14;;;;;;;1.83;0.93;;;;;;;4.07;100.00;99267.84;4927628;28;20058;-60
2022/02/23 12:27:58;;;;;;;2.83;1.17;;;;;;;4.19;100.00;99278.31;4951287;28;20085;-60
2022/02/23 12:30:50;;;;;;;1.42;1.00;;;;;;;4.33;100.00;99266.91;4955565;28;20050;-61
2022/02/23 12:33:37;;;;;;;2.78;0.70;;;;;;;4.32;100.00;99285.28;4947319;28;20089;-64
2022/02/23 12:36:31;;;;;;;1.38;0.80;;;;;;;4.15;100.00;99240.72;4929383;28;20053;-66
2022/02/23 12:39:28;;;;;;;2.05;0.70;;;;;;;4.18;100.00;99285.31;4921623;28;20249;-59
2022/02/23 12:42:15;;;;;;;1.08;0.57;;;;;;;4.17;100.00;99301.94;4924599;28;20526;-61
2022/02/23 12:45:00;;;;;;;0.80;0.55;;;;;;;4.23;100.00;99285.28;4955303;28;20058;-62
2022/02/23 12:48:01;;;;;;;1.55;0.77;;;;;;;4.27;100.00;99301.03;4927712;28;20758;-62
2022/02/23 12:50:47;;;;;;;2.25;0.60;;;;;;;4.15;100.00;99306.31;4933678;28;20054;-64
2022/02/23 12:53:44;;;;;;;3.08;0.80;;;;;;;4.21;100.00;99305.44;4954438;28;20081;-62
2022/02/23 12:56:41;;;;;;;0.82;0.70;;;;;;;4.22;100.00;99320.28;4923900;28;20173;-63
2022/02/23 12:59:29;;;;;;;1.85;0.75;;;;;;;4.28;100.00;99329.00;4924809;28;20081;-61
2022/02/23 13:02:16;;;;;;;2.28;0.70;;;;;;;4.28;100.00;99330.78;4955590;28;20610;-60
2022/02/23 13:05:02;;;;;;;1.45;0.93;;;;;;;4.25;100.00;99330.78;4962792;28;20694;-59
2022/02/23 13:07:48;;;;;;;3.28;0.70;;;;;;;4.22;100.00;99325.53;4948772;28;20053;-63